Latest Weather Observations for Hogan Island

IDT60801

Issued at 11:01 pm EDT Sunday 25 January 2015 (issued every 30 minutes, with the page automatically refreshed every 10 minutes)

About weather observations | Map of weather stations | Latest weather observations for TAS | Other Formats
Station Details ID: 200838 Name: HOGAN ISLAND Lat: -39.22 Lon: 146.98 Height: 116.0 m
Data from the previous 72 hours. | See also: Recent months at Hogan Island
Date/Time
EDT
Temp
°C
App
Temp
°C
Dew
Point
Rel
Hum
%
Delta-T
°C
Wind Press
QNH
hPa
Press
MSL
hPa
Rain
since 9 am
mm
Dir
 
Spd
km/h
Gust
km/h
Spd
kts
Gust
kts
25/11:00pm 14.0 2.3 6.4 60 3.7 W 57 69 31 37 1010.7 - 0.0
25/10:30pm 12.9 2.3 8.4 74 2.3 W 54 65 29 35 1010.6 - 0.0
25/10:18pm 12.9 1.5 7.6 70 2.6 WSW 57 82 31 44 1010.2 - 0.0
25/10:00pm 14.4 2.5 7.2 62 3.5 W 59 69 32 37 1010.3 - 0.0
25/09:30pm 14.2 2.0 7.3 63 3.4 W 61 70 33 38 1009.7 - 0.0
25/09:00pm 14.0 2.9 8.2 68 2.9 W 56 63 30 34 1009.5 1009.3 0.0
25/08:30pm 14.4 2.1 7.0 61 3.6 W 61 70 33 38 1009.0 - 0.0
25/08:00pm 14.9 2.2 6.7 58 4.0 W 63 72 34 39 1008.7 - 0.0
25/07:30pm 14.9 1.6 7.7 62 3.6 W 67 80 36 43 1008.3 - 0.0
25/07:00pm 15.0 1.1 7.5 61 3.7 W 70 82 38 44 1007.9 - 0.0
25/06:30pm 15.6 1.8 7.9 60 3.9 W 70 85 38 46 1007.1 - 0.0
25/06:00pm 15.9 1.9 6.9 55 4.5 W 70 85 38 46 1006.7 1006.5 0.0
25/05:30pm 15.9 1.6 7.4 57 4.3 W 72 89 39 48 1006.3 - 0.0
25/05:01pm 17.1 4.1 8.8 58 4.3 W 67 85 36 46 1006.4 - 0.0
25/05:00pm 16.7 3.4 8.9 60 4.0 W 69 85 37 46 1006.3 - 0.0
25/04:59pm 16.4 3.1 8.9 61 3.9 W 69 87 37 47 1006.3 - 0.0
25/04:30pm 16.9 3.2 8.3 57 4.4 W 70 83 38 45 1006.0 - 0.0
25/04:00pm 17.0 3.2 7.9 55 4.6 W 70 85 38 46 1005.9 - 0.0
25/03:35pm 15.9 2.3 7.9 59 4.0 W 69 87 37 47 1005.7 - 0.0
25/03:30pm 15.4 2.7 8.6 64 3.5 W 65 78 35 42 1006.0 - 0.0
25/03:00pm 16.0 2.2 8.0 59 4.1 W 70 82 38 44 1005.6 1005.4 0.0
25/02:30pm 17.1 3.0 8.0 55 4.6 W 72 89 39 48 1005.3 - 0.0
25/02:27pm 16.3 2.5 7.8 57 4.3 W 70 89 38 48 1005.1 - 0.0
25/02:00pm 16.3 1.8 8.0 58 4.2 W 74 87 40 47 1004.8 - 0.0
25/01:49pm 17.7 4.1 8.0 53 5.0 W 69 89 37 48 1004.8 - 0.0
25/01:30pm 17.8 4.0 9.2 57 4.5 W 72 85 39 46 1004.8 - 0.0
25/01:00pm 17.0 3.1 7.6 54 4.8 W 70 82 38 44 1004.6 - 0.0
25/12:30pm 17.3 3.8 8.2 55 4.7 W 69 80 37 43 1004.4 - 0.0
25/12:00pm 17.2 4.0 8.1 55 4.7 W 67 80 36 43 1004.3 1004.1 0.0
25/11:30am 16.4 4.0 8.1 58 4.2 W 63 72 34 39 1004.2 - 0.0
25/11:00am 16.9 5.0 8.8 59 4.2 W 61 70 33 38 1004.0 - 0.0
25/10:30am 15.6 3.5 9.3 66 3.3 W 63 72 34 39 1003.5 - 0.0
25/10:00am 15.4 5.9 11.0 75 2.4 WSW 52 61 28 33 1004.0 - 0.0
25/09:30am 14.2 2.2 11.0 81 1.7 W 65 78 35 42 1003.4 - 0.0
25/09:26am 14.8 3.7 11.4 80 1.8 W 61 78 33 42 1003.3 - 0.0
25/09:00am 14.8 6.2 13.0 89 1.0 W 50 59 27 32 1003.5 1003.3 0.8
25/08:30am 13.8 4.7 12.4 91 0.8 W 52 63 28 34 1003.2 - 0.8
25/08:00am 14.0 4.9 12.4 90 0.9 W 52 59 28 32 1002.9 - 0.6
25/07:30am 14.2 2.5 12.2 88 1.1 W 65 78 35 42 1002.2 - 0.4
25/07:00am 14.0 1.6 12.2 89 1.0 W 69 80 37 43 1001.2 - 0.4
25/06:43am 14.2 3.0 12.4 89 1.0 W 63 83 34 45 1001.2 - 0.0
25/06:30am 14.9 2.8 12.0 83 1.6 W 67 76 36 41 1000.7 - 0.0
25/06:28am 15.1 3.8 12.1 82 1.6 WSW 63 72 34 39 1000.7 - 0.0
25/06:24am 16.4 8.9 12.2 76 2.3 WNW 43 65 23 35 1000.9 - 0.0
25/06:00am 17.1 9.6 12.8 76 2.4 W 44 52 24 28 1000.7 1000.5 0.0
25/05:30am 16.9 12.7 13.4 80 2.0 WNW 28 35 15 19 1000.7 - 0.0
25/05:00am 16.4 14.5 14.1 86 1.3 WNW 17 20 9 11 1000.1 - 0.0
25/04:30am 16.1 14.5 13.9 87 1.2 W 15 17 8 9 1000.3 - 0.0
25/04:00am 16.2 14.8 14.6 90 0.9 WNW 15 17 8 9 1000.8 - 0.0
25/03:30am 16.2 14.6 14.9 92 0.8 W 17 20 9 11 1001.1 - 0.0
25/03:00am 15.9 14.8 14.4 91 0.9 W 13 15 7 8 1001.2 1001.0 0.0
25/02:30am 16.4 15.5 14.8 90 0.9 WNW 13 15 7 8 1001.5 - 0.0
25/02:00am 16.7 15.5 15.1 90 0.9 W 15 19 8 10 1001.5 - 0.0
25/01:30am 16.3 14.9 14.5 89 1.0 W 15 17 8 9 1002.1 - 0.0
25/01:00am 16.7 15.0 14.7 88 1.2 W 17 19 9 10 1002.2 - 0.0
25/12:30am 16.7 15.3 14.5 87 1.3 W 15 17 8 9 1002.4 - 0.0
25/12:00am 16.6 16.2 14.1 85 1.4 WSW 9 13 5 7 1002.7 1002.4 0.0
 
Date/Time
EDT
Temp
°C
App
Temp
°C
Dew
Point
Rel
Hum
%
Delta-T
°C
Wind Press
QNH
hPa
Press
MSL
hPa
Rain
since 9 am
mm
Dir
 
Spd
km/h
Gust
km/h
Spd
kts
Gust
kts
24/11:30pm 16.6 16.6 14.1 85 1.4 WNW 7 9 4 5 1003.0 - 0.0
24/11:00pm 16.2 17.1 14.0 87 1.3 E 2 6 1 3 1003.1 - 0.0
24/10:30pm 15.9 17.1 13.7 87 1.2 CALM 0 0 0 0 1003.5 - 0.0
24/10:00pm 16.1 16.2 13.8 86 1.3 E 6 7 3 4 1003.6 - 0.0
24/09:30pm 16.0 14.7 13.7 86 1.3 E 13 15 7 8 1003.7 - 0.0
24/09:00pm 16.3 14.2 13.6 84 1.5 E 17 19 9 10 1003.8 1003.6 0.0
24/08:30pm 16.5 14.1 12.8 79 2.1 ENE 17 20 9 11 1003.9 - 0.0
24/08:00pm 17.4 15.0 12.7 74 2.6 ENE 17 19 9 10 1003.8 - 0.0
24/07:30pm 18.1 15.9 12.1 68 3.3 E 15 17 8 9 1003.2 - 0.0
24/07:00pm 18.5 16.4 12.3 67 3.5 E 15 19 8 10 1002.9 - 0.0
24/06:30pm 18.9 16.4 12.4 66 3.6 E 17 20 9 11 1003.2 - 0.0
24/06:00pm 19.1 16.1 12.1 64 3.9 E 19 20 10 11 1003.1 1002.9 0.0
24/05:30pm 19.6 16.7 12.4 63 4.1 E 19 22 10 12 1002.9 - 0.0
24/05:00pm 19.7 16.7 12.7 64 4.0 E 20 24 11 13 1003.0 - 0.0
24/04:30pm 20.0 17.1 13.0 64 4.0 E 20 24 11 13 1003.3 - 0.0
24/04:00pm 20.4 17.9 13.6 65 3.9 ESE 19 22 10 12 1003.7 - 0.0
24/03:30pm 19.7 17.1 13.2 66 3.7 ESE 19 20 10 11 1003.9 - 0.0
24/03:00pm 19.9 17.6 12.9 64 4.0 ESE 17 22 9 12 1004.2 1004.0 0.0
24/02:30pm 19.3 17.3 12.6 65 3.8 ESE 15 20 8 11 1004.6 - 0.0
24/02:00pm 19.5 17.6 13.0 66 3.7 ENE 15 20 8 11 1004.9 - 0.0
24/01:30pm 19.1 16.7 13.7 71 3.1 ENE 19 24 10 13 1005.0 - 0.0
24/01:00pm 18.9 17.3 12.9 68 3.4 ENE 13 19 7 10 1005.3 - 0.0
24/12:30pm 19.5 18.3 12.7 65 3.8 ENE 11 15 6 8 1005.8 - 0.0
24/12:00pm 19.3 17.9 12.1 63 4.0 NE 11 17 6 9 1006.0 1005.8 0.0
24/11:30am 21.0 20.7 13.4 62 4.4 NE 7 15 4 8 1006.0 - 0.0
24/11:00am 19.6 19.1 12.6 64 4.0 SE 7 11 4 6 1006.3 - 0.0
24/10:30am 18.5 18.1 12.3 67 3.5 WNW 6 9 3 5 1006.6 - 0.0
24/10:00am 18.2 17.3 12.6 70 3.1 W 9 11 5 6 1006.5 - 0.0
24/09:30am 17.5 17.0 12.6 73 2.7 W 7 9 4 5 1006.7 - 0.0
24/09:00am 17.1 16.7 12.4 74 2.6 NE 6 9 3 5 1006.8 1006.6 0.0
24/08:30am 16.7 16.0 12.0 74 2.6 ENE 7 9 4 5 1006.7 - 0.0
24/08:00am 16.3 14.8 11.9 75 2.4 ENE 11 13 6 7 1006.6 - 0.0
24/07:30am 16.1 14.2 11.7 75 2.4 ENE 13 19 7 10 1006.4 - 0.0
24/07:00am 15.8 14.2 11.6 76 2.3 ENE 11 15 6 8 1006.6 - 0.0
24/06:30am 15.4 13.7 11.2 76 2.3 ENE 11 13 6 7 1006.5 - 0.0
24/06:00am 15.3 14.0 11.1 76 2.3 E 9 11 5 6 1006.6 1006.4 0.0
24/05:30am 15.2 13.4 11.0 76 2.2 E 11 13 6 7 1006.7 - 0.0
24/05:00am 15.2 13.5 11.2 77 2.1 E 11 15 6 8 1006.5 - 0.0
24/04:30am 15.2 14.3 11.2 77 2.1 E 7 9 4 5 1006.6 - 0.0
24/04:00am 15.2 15.5 11.0 76 2.2 CALM 0 0 0 0 1006.7 - 0.0
24/03:30am 15.3 15.7 11.1 76 2.3 CALM 0 0 0 0 1006.9 - 0.0
24/03:00am 15.3 14.0 11.1 76 2.3 SW 9 13 5 7 1007.2 1007.0 0.0
24/02:30am 15.3 12.8 10.9 75 2.4 WSW 15 19 8 10 1007.1 - 0.0
24/02:00am 15.5 11.7 11.3 76 2.3 SW 22 32 12 17 1007.2 - 0.0
24/01:30am 15.2 10.7 11.4 78 2.0 WSW 26 32 14 17 1007.1 - 0.0
24/01:00am 14.4 11.4 10.8 79 1.9 SW 17 20 9 11 1008.0 - 0.0
24/12:30am 14.7 11.3 10.7 77 2.1 SW 19 20 10 11 1008.1 - 0.0
24/12:00am 15.2 12.4 11.2 77 2.2 SW 17 20 9 11 1008.4 1008.2 0.0
 
Date/Time
EDT
Temp
°C
App
Temp
°C
Dew
Point
Rel
Hum
%
Delta-T
°C
Wind Press
QNH
hPa
Press
MSL
hPa
Rain
since 9 am
mm
Dir
 
Spd
km/h
Gust
km/h
Spd
kts
Gust
kts
23/11:30pm 15.4 12.3 11.6 78 2.1 SW 19 24 10 13 1009.0 - 0.0
23/11:00pm 15.0 11.7 11.6 80 1.8 SW 20 24 11 13 1009.1 - 0.0
23/10:30pm 15.1 11.9 11.3 78 2.0 WSW 19 22 10 12 1009.3 - 0.0
23/10:00pm 15.5 11.0 11.5 77 2.2 SW 26 33 14 18 1009.2 - 0.0
23/09:30pm 15.6 10.1 12.0 79 2.0 WSW 32 35 17 19 1009.2 - 0.0
23/09:00pm 16.1 10.9 12.7 80 1.9 WSW 32 35 17 19 1008.9 1008.7 0.0
23/08:30pm 16.6 11.1 12.6 77 2.2 WSW 33 39 18 21 1008.8 - 0.0
23/08:00pm 17.0 11.4 12.1 73 2.7 WSW 33 39 18 21 1008.5 - 0.0
23/07:30pm 17.9 12.6 12.4 70 3.1 WSW 32 35 17 19 1008.2 - 0.0
23/07:00pm 17.7 11.9 11.5 67 3.4 WSW 33 39 18 21 1007.6 - 0.0
23/06:30pm 19.3 13.7 12.1 63 4.0 WSW 33 39 18 21 1007.3 - 0.0
23/06:00pm 17.7 11.0 11.0 65 3.6 WSW 37 43 20 23 1007.0 1006.8 0.0
23/05:30pm 18.7 10.1 12.9 69 3.3 WSW 50 57 27 31 1006.1 - 0.0
23/05:00pm 18.3 9.8 13.2 72 2.9 WSW 50 57 27 31 1005.8 - 0.0
23/04:30pm 20.0 12.9 14.1 69 3.4 WSW 44 52 24 28 1005.5 - 0.0
23/04:00pm 20.3 15.2 14.7 70 3.3 SW 35 43 19 23 1005.9 - 0.0
23/03:30pm 20.2 11.8 14.6 70 3.3 WSW 52 61 28 33 1005.2 - 0.0
23/03:00pm 20.1 12.3 15.1 73 3.0 WSW 50 57 27 31 1005.0 1004.8 0.0
23/02:30pm 19.5 12.8 15.2 76 2.5 WSW 44 52 24 28 1005.3 - 0.0
23/02:00pm 20.6 12.1 15.4 72 3.1 WSW 54 59 29 32 1005.5 - 0.0
23/01:30pm 20.0 10.3 14.8 72 3.1 WSW 59 67 32 36 1005.4 - 0.0
23/01:17pm 20.6 11.3 14.7 69 3.5 W 57 63 31 34 1005.4 - 0.0
23/01:00pm 21.0 16.3 15.8 72 3.1 WSW 35 44 19 24 1005.6 - 0.0
23/12:30pm 21.4 16.0 15.9 71 3.3 W 39 44 21 24 1005.2 - 0.0
23/12:00pm 21.2 15.3 16.8 76 2.7 W 43 48 23 26 1004.9 1004.7 0.0
23/11:30am 21.0 15.6 17.0 78 2.5 W 41 46 22 25 1005.0 - 0.0
23/11:00am 20.9 16.2 17.7 82 2.0 W 39 44 21 24 1004.8 - 0.0
23/10:30am 20.5 15.2 18.1 86 1.5 W 43 48 23 26 1004.4 - 0.0
23/10:00am 20.3 17.3 18.6 90 1.1 WSW 32 39 17 21 1004.1 - 0.0
23/09:30am 19.6 16.9 18.4 93 0.7 WSW 30 33 16 18 1004.0 - 0.0
23/09:00am 19.2 16.8 18.2 94 0.6 WSW 28 32 15 17 1003.8 1003.6 0.0
23/08:30am 18.9 16.8 18.1 95 0.5 WSW 26 28 14 15 1003.6 - 0.0
23/08:00am 18.7 16.9 17.9 95 0.5 WSW 24 30 13 16 1003.4 - 0.0
23/07:30am 18.6 16.4 17.8 95 0.5 WSW 26 32 14 17 1003.2 - 0.0
23/07:00am 18.1 15.7 17.3 95 0.5 WSW 26 30 14 16 1003.3 - 0.0
23/06:30am 18.1 16.1 17.3 95 0.5 W 24 30 13 16 1002.9 - 0.0
23/06:00am 18.1 17.8 17.3 95 0.5 W 15 20 8 11 1002.4 1002.1 0.0
23/05:30am 18.8 17.8 18.0 95 0.5 NNW 20 28 11 15 1002.3 - 0.0
23/05:00am 19.2 17.2 18.2 94 0.6 N 26 35 14 19 1002.1 - 0.0
23/04:30am 19.8 16.4 19.0 95 0.5 N 35 41 19 22 1002.2 - 0.0
23/04:00am 18.8 16.3 18.1 96 0.4 NNE 28 32 15 17 1002.4 - 0.0
23/03:30am 18.5 16.3 17.8 96 0.4 NNE 26 30 14 16 1002.9 - 0.0
23/03:00am 18.5 16.3 17.8 96 0.4 NE 26 32 14 17 1003.2 1003.0 0.0
23/02:30am 18.2 16.7 17.6 96 0.4 NE 22 28 12 15 1003.7 - 0.0
23/02:00am 17.8 15.7 17.2 96 0.4 NE 24 28 13 15 1004.2 - 0.0
23/01:30am 17.7 14.8 17.1 96 0.4 ENE 28 30 15 16 1004.5 - 0.0
23/01:00am 17.7 14.4 17.1 96 0.4 ENE 30 33 16 18 1005.1 - 0.0
23/12:30am 17.5 14.5 16.9 96 0.4 E 28 32 15 17 1005.8 - 0.0
23/12:00am 17.4 14.4 16.8 96 0.4 E 28 35 15 19 1006.3 1006.1 0.0
 
Date/Time
EDT
Temp
°C
App
Temp
°C
Dew
Point
Rel
Hum
%
Delta-T
°C
Wind Press
QNH
hPa
Press
MSL
hPa
Rain
since 9 am
mm
Dir
 
Spd
km/h
Gust
km/h
Spd
kts
Gust
kts
22/11:30pm 17.2 15.6 16.6 96 0.4 ESE 20 24 11 13 1007.3 - 0.0

Other Formats:

Comma delimited format used in spreadsheet applications
http://www.bom.gov.au/fwo/IDT60801/IDT60801.94949.axf

JavaScript Object Notation format (JSON) in row-major order
http://www.bom.gov.au/fwo/IDT60801/IDT60801.94949.json